createdAt,value
2019-04-19T00:01:02.694Z,153079.72
2019-04-19T00:03:32.159Z,153052.06
2019-04-19T00:06:05.909Z,153041.55
2019-04-19T00:08:45.327Z,153044.16
2019-04-19T00:11:12.972Z,153033.64
2019-04-19T00:13:32.572Z,153028.41
2019-04-19T00:16:02.564Z,153017.88
2019-04-19T00:18:31.256Z,153009.97
2019-04-19T00:21:19.827Z,153004.69
2019-04-19T00:23:36.675Z,152999.44
2019-04-19T00:26:00.192Z,153002.06
2019-04-19T00:28:39.202Z,152991.53
2019-04-19T00:31:14.388Z,152988.92
2019-04-19T00:33:37.564Z,152982.33
2019-04-19T00:36:00.283Z,152978.41
2019-04-19T00:38:51.428Z,152984.94
2019-04-19T00:41:25.616Z,152973.11
2019-04-19T00:44:06.687Z,152973.11
2019-04-19T00:46:55.359Z,152953.33
2019-04-19T00:49:14.753Z,152930.97
2019-04-19T00:51:55.140Z,152938.87
2019-04-19T00:54:13.018Z,152941.50
2019-04-19T00:56:42.667Z,152927.05
2019-04-19T00:59:07.892Z,152915.22
2019-04-19T01:01:33.993Z,152916.53
2019-04-19T01:04:05.321Z,152912.59
2019-04-19T01:06:41.968Z,152904.69
2019-04-19T01:09:20.151Z,152911.23
2019-04-19T01:11:52.708Z,152912.59
2019-04-19T01:14:17.273Z,152907.31
2019-04-19T01:16:51.709Z,152900.72
2019-04-19T01:19:09.851Z,152898.09
2019-04-19T01:21:36.546Z,152907.31
2019-04-19T01:24:06.523Z,152883.66
2019-04-19T01:26:40.608Z,152896.78
2019-04-19T01:29:10.446Z,152882.34
2019-04-19T01:31:35.835Z,152880.98
2019-04-19T01:34:14.723Z,152878.36
2019-04-19T01:36:39.096Z,152882.34
2019-04-19T01:39:21.614Z,152888.89
2019-04-19T01:41:51.595Z,152879.67
2019-04-19T01:44:29.117Z,152878.36
2019-04-19T01:47:00.696Z,152883.66
2019-04-19T01:49:30.037Z,152866.53
2019-04-19T01:52:07.761Z,152865.23
2019-04-19T01:54:36.973Z,152875.75
2019-04-19T01:56:57.138Z,152862.61
2019-04-19T01:59:25.376Z,152871.83
2019-04-19T02:01:59.432Z,152870.47
2019-04-19T02:04:27.787Z,152867.84
2019-04-19T02:06:53.345Z,152865.23
2019-04-19T02:09:31.547Z,152857.33
2019-04-19T02:12:13.194Z,152848.11
2019-04-19T02:14:37.612Z,152828.38
2019-04-19T02:17:03.185Z,152833.67
2019-04-19T02:19:30.137Z,152825.77
2019-04-19T02:22:00.090Z,152824.47
2019-04-19T02:24:36.262Z,152825.77
2019-04-19T02:27:03.328Z,152819.17
2019-04-19T02:29:31.722Z,152813.94
2019-04-19T02:39:57.398Z,152792.91
2019-04-19T02:42:35.178Z,152781.08
2019-04-19T02:45:12.069Z,152778.47
2019-04-19T02:47:38.523Z,152762.66
2019-04-19T02:50:02.068Z,152741.63
2019-04-19T02:52:34.113Z,152748.22
2019-04-19T02:55:05.566Z,152735.05
2019-04-19T03:02:47.784Z,152710.09
2019-04-19T03:05:14.960Z,152686.44
2019-04-19T03:07:17.986Z,152678.55
2019-04-19T03:09:47.308Z,152657.52
2019-04-19T03:12:39.818Z,152660.14
2019-04-19T03:15:02.022Z,152654.91
2019-04-19T03:17:34.640Z,152649.62
2019-04-19T03:20:09.006Z,152618.09
2019-04-19T03:22:34.588Z,152620.70
2019-04-19T03:25:08.332Z,152607.58
2019-04-19T03:27:26.425Z,152614.17
2019-04-19T03:29:59.963Z,152612.86
2019-04-19T03:32:56.039Z,152597.06
2019-04-19T03:35:03.908Z,152576.00
2019-04-19T03:37:38.369Z,152565.48
2019-04-19T03:40:18.955Z,152570.72
2019-04-19T03:42:57.806Z,152573.38
2019-04-19T03:45:28.970Z,152560.20
2019-04-19T03:48:04.726Z,152547.08
2019-04-19T03:50:36.282Z,152539.19
2019-04-19T03:53:00.664Z,152539.19
2019-04-19T03:55:34.848Z,152523.45
2019-04-19T03:57:54.030Z,152506.36
2019-04-19T04:00:15.461Z,152514.25
2019-04-19T04:02:46.773Z,152498.52
2019-04-19T04:05:17.435Z,152498.52
2019-04-19T04:07:55.223Z,152487.95
2019-04-19T04:10:29.293Z,152503.75
2019-04-19T04:13:13.312Z,152486.66
2019-04-19T04:15:46.743Z,152486.66
2019-04-19T04:18:02.898Z,152480.13
2019-04-19T04:20:35.328Z,152468.30
2019-04-19T04:23:07.622Z,152473.53
2019-04-19T04:25:45.295Z,152456.44
2019-04-19T04:28:14.377Z,152463.02
2019-04-19T04:30:42.088Z,152470.91
2019-04-19T04:33:10.589Z,152472.22
2019-04-19T04:35:49.098Z,152472.22
2019-04-19T04:38:13.750Z,152461.72
2019-04-19T04:40:33.807Z,152452.52
2019-04-19T04:43:16.706Z,152461.72
2019-04-19T04:46:01.854Z,152463.02
2019-04-19T04:48:32.414Z,152452.52
2019-04-19T04:51:15.405Z,152465.64
2019-04-19T04:53:30.125Z,152459.09
2019-04-19T04:56:03.865Z,152468.30
2019-04-19T04:58:35.780Z,152465.64
2019-04-19T05:01:05.838Z,152472.22
2019-04-19T05:03:48.421Z,152478.81
2019-04-19T05:06:24.657Z,152495.84
2019-04-19T05:08:50.126Z,152505.05
2019-04-19T05:11:22.844Z,152507.66
2019-04-19T05:13:50.071Z,152520.84
2019-04-19T05:16:27.427Z,152533.97
2019-04-19T05:18:49.530Z,152568.09
2019-04-19T05:21:23.079Z,152573.38
2019-04-19T05:23:59.384Z,152612.86
2019-04-19T05:26:37.451Z,152635.19
2019-04-19T05:28:50.235Z,152649.62
2019-04-19T05:31:09.007Z,152681.16
2019-04-19T05:33:47.950Z,152720.61
2019-04-19T05:36:27.596Z,152748.22
2019-04-19T05:39:00.065Z,152774.48
2019-04-19T05:41:26.230Z,152796.84
2019-04-19T05:46:47.063Z,152873.13
2019-04-19T05:49:12.681Z,152904.69
2019-04-19T05:51:57.989Z,152917.83
2019-04-19T05:53:58.319Z,152946.78
2019-04-19T05:56:24.397Z,152974.42
2019-04-19T05:59:03.581Z,153028.41
2019-04-19T06:01:41.387Z,153077.05
2019-04-19T06:04:11.900Z,153094.17
2019-04-19T06:06:51.325Z,153124.45
2019-04-19T06:08:54.136Z,153157.34
2019-04-19T06:11:30.045Z,153200.78
2019-04-19T06:14:12.492Z,153235.03
2019-04-19T06:16:38.867Z,153289.06
2019-04-19T06:19:16.786Z,153307.52
2019-04-19T06:21:43.931Z,153397.03
2019-04-19T06:24:17.969Z,153505.09
2019-04-19T06:29:14.850Z,153581.56
2019-04-19T06:31:56.205Z,153668.53
2019-04-19T06:34:15.812Z,153676.47
2019-04-19T06:36:29.254Z,153759.53
2019-04-19T06:38:59.311Z,153892.80
2019-04-19T06:41:32.090Z,153781.94
2019-04-19T06:44:08.629Z,153850.55
2019-04-19T06:46:41.484Z,153894.13
2019-04-19T06:49:05.993Z,153937.64
2019-04-19T06:51:38.987Z,154024.77
2019-04-19T06:54:03.950Z,154127.78
2019-04-19T06:56:34.025Z,154192.45
2019-04-19T06:59:10.391Z,154243.97
2019-04-19T07:01:38.287Z,154324.48
2019-04-19T07:04:00.065Z,154431.58
2019-04-19T07:06:44.303Z,154492.38
2019-04-19T07:11:51.747Z,154614.00
2019-04-19T07:14:07.423Z,154684.09
2019-04-19T07:16:51.064Z,154793.88
2019-04-19T07:19:23.140Z,154733.03
2019-04-19T07:21:46.857Z,154830.94
2019-04-19T07:24:30.486Z,155016.19
2019-04-19T07:26:54.664Z,155016.19
2019-04-19T07:29:02.276Z,155108.91
2019-04-19T07:31:33.740Z,155193.64
2019-04-19T07:34:09.245Z,155267.84
2019-04-19T07:36:49.905Z,155355.25
2019-04-19T07:39:20.593Z,155424.17
2019-04-19T07:41:54.308Z,155482.55
2019-04-19T07:44:20.042Z,155511.66
2019-04-19T07:47:06.631Z,155585.88
2019-04-19T07:49:25.342Z,155646.88
2019-04-19T07:52:04.605Z,155623.03
2019-04-19T07:54:28.894Z,155713.25
2019-04-19T07:57:10.016Z,155623.03
2019-04-19T07:59:47.098Z,155835.23
2019-04-19T08:05:01.307Z,155970.63
2019-04-19T08:09:58.586Z,155964.02
2019-04-19T08:12:22.709Z,156055.59
2019-04-19T08:29:38.626Z,157477.48
2019-04-19T08:31:58.458Z,157614.75
2019-04-19T08:34:29.646Z,157573.44
2019-04-19T08:37:03.019Z,157720.09
2019-04-19T08:39:44.686Z,158013.52
2019-04-19T08:42:14.891Z,157251.08
2019-04-19T08:44:41.988Z,157710.75
2019-04-19T08:47:01.948Z,158012.19
2019-04-19T08:49:38.355Z,158156.33
2019-04-19T08:52:08.238Z,157798.81
2019-04-19T08:54:53.595Z,158385.98
2019-04-19T08:57:12.598Z,158439.37
2019-04-19T08:59:58.054Z,158527.53
2019-04-19T09:02:23.525Z,158241.77
2019-04-19T09:04:54.591Z,158412.66
2019-04-19T09:07:43.517Z,158884.36
2019-04-19T09:10:12.299Z,158802.78
2019-04-19T09:12:26.887Z,158949.84
2019-04-19T09:14:56.371Z,158796.14
2019-04-19T09:17:36.003Z,158980.59
2019-04-19T09:20:11.370Z,158929.78
2019-04-19T09:22:25.393Z,159014.05
2019-04-19T09:24:49.137Z,159162.50
2019-04-19T09:27:32.989Z,159222.69
2019-04-19T09:29:58.918Z,159332.39
2019-04-19T09:32:15.256Z,159198.63
2019-04-19T09:34:46.200Z,159129.08
2019-04-19T09:37:18.409Z,158952.50
2019-04-19T09:39:48.737Z,159059.53
2019-04-19T09:42:21.730Z,159008.72
2019-04-19T09:44:46.090Z,158971.22
2019-04-19T09:47:10.437Z,159138.44
2019-04-19T09:49:54.426Z,159340.44
2019-04-19T09:52:34.383Z,158925.80
2019-04-19T09:55:03.351Z,158916.44
2019-04-19T09:57:29.018Z,158451.39
2019-04-19T09:59:42.980Z,158431.36
2019-04-19T10:02:22.383Z,158313.84
2019-04-19T10:04:42.132Z,158452.72
2019-04-19T10:07:11.210Z,158749.34
2019-04-19T10:09:40.789Z,158911.06
2019-04-19T10:12:09.307Z,159118.38
2019-04-19T10:14:37.810Z,159060.86
2019-04-19T10:17:12.344Z,158904.41
2019-04-19T10:19:42.380Z,158772.05
2019-04-19T10:22:12.658Z,158645.09
2019-04-19T10:24:41.293Z,158749.34
2019-04-19T10:27:26.943Z,159096.94
2019-04-19T10:29:56.080Z,158754.72
2019-04-19T10:32:26.756Z,158765.41
2019-04-19T10:34:56.754Z,158879.00
2019-04-19T10:37:26.023Z,158836.19
2019-04-19T10:39:55.342Z,158547.56
2019-04-19T10:42:25.072Z,158567.59
2019-04-19T10:44:54.052Z,158434.00
2019-04-19T10:47:24.741Z,158434.00
2019-04-19T10:50:06.669Z,158482.16
2019-04-19T10:52:25.844Z,158252.44
2019-04-19T10:54:57.166Z,157813.45
2019-04-19T10:57:27.349Z,157533.47
2019-04-19T10:59:58.800Z,157553.45
2019-04-19T11:02:29.829Z,157207.09
2019-04-19T11:04:59.159Z,157204.45
2019-04-19T11:07:27.976Z,156807.78
2019-04-19T11:09:57.766Z,156797.16
2019-04-19T11:12:26.565Z,156759.95
2019-04-19T11:14:55.459Z,156346.45
2019-04-19T11:17:23.995Z,156471.37
2019-04-19T11:20:05.922Z,156297.34
2019-04-19T11:22:23.824Z,156092.78
2019-04-19T11:24:52.638Z,156104.73
2019-04-19T11:27:21.438Z,156013.08
2019-04-19T11:29:52.493Z,155921.56
2019-04-19T11:32:26.113Z,155851.23
2019-04-19T11:34:55.626Z,155835.23
2019-04-19T11:37:25.458Z,155880.42
2019-04-19T11:39:55.137Z,155820.66
2019-04-19T11:42:23.858Z,155798.12
2019-04-19T11:44:53.780Z,155723.86
2019-04-19T11:47:23.007Z,155745.08
2019-04-19T11:49:51.651Z,155680.06
2019-04-19T11:52:22.001Z,155645.56
2019-04-19T11:54:50.711Z,155607.09
2019-04-19T11:57:30.350Z,155550.11
2019-04-19T12:00:04.121Z,155482.55
2019-04-19T12:02:40.606Z,155519.62
2019-04-19T12:05:16.520Z,155511.66
2019-04-19T12:07:40.603Z,155429.44
2019-04-19T12:10:10.374Z,155518.31
2019-04-19T12:12:39.169Z,155499.73
2019-04-19T12:15:10.287Z,155516.98
2019-04-19T12:17:40.099Z,155441.41
2019-04-19T12:20:09.756Z,155461.34
2019-04-19T12:22:39.911Z,155471.94
2019-04-19T12:25:10.005Z,155436.08
2019-04-19T12:27:39.448Z,155432.12
2019-04-19T12:30:09.351Z,155445.36
2019-04-19T12:32:39.638Z,155408.25
2019-04-19T12:35:08.817Z,155387.05
2019-04-19T12:37:37.547Z,155416.20
2019-04-19T12:40:06.767Z,155410.94
2019-04-19T12:42:35.928Z,155399.00
2019-04-19T12:45:08.264Z,155433.45
2019-04-19T12:47:38.098Z,155408.25
2019-04-19T12:50:10.701Z,155416.20
2019-04-19T12:52:39.937Z,155402.97
2019-04-19T12:55:10.259Z,155387.05
2019-04-19T12:57:41.601Z,155421.53
2019-04-19T13:00:11.949Z,155429.44
2019-04-19T13:02:51.757Z,155421.53
2019-04-19T13:05:22.429Z,155392.37
2019-04-19T13:08:01.038Z,155413.56
2019-04-19T13:10:29.457Z,155402.97
2019-04-19T13:12:58.175Z,155365.84
2019-04-19T13:15:27.492Z,155395.00
2019-04-19T13:17:56.073Z,155357.94
2019-04-19T13:20:30.619Z,155412.25
2019-04-19T13:22:54.841Z,155409.61
2019-04-19T13:25:23.657Z,155404.28
2019-04-19T13:27:55.108Z,155326.14
2019-04-19T13:30:31.935Z,155357.94
2019-04-19T13:32:54.874Z,155384.41
2019-04-19T13:35:23.512Z,155369.84
2019-04-19T13:37:54.737Z,155323.45
2019-04-19T13:40:26.217Z,155318.19
2019-04-19T13:42:56.982Z,155319.50
2019-04-19T13:45:29.852Z,155327.47
2019-04-19T13:47:56.542Z,155278.44
2019-04-19T13:50:31.766Z,155307.59
2019-04-19T13:52:55.526Z,155318.19
2019-04-19T13:55:24.446Z,155304.95
2019-04-19T13:57:53.663Z,155291.67
2019-04-19T14:00:26.338Z,155286.41
2019-04-19T14:02:55.657Z,155311.55
2019-04-19T14:05:24.252Z,155318.19
2019-04-19T14:07:53.149Z,155303.58
2019-04-19T14:10:21.758Z,155299.63
2019-04-19T14:12:51.356Z,155307.59
2019-04-19T14:15:20.432Z,155318.19
2019-04-19T14:17:49.789Z,155307.59
2019-04-19T14:20:29.696Z,155303.58
2019-04-19T14:22:49.740Z,155297.00
2019-04-19T14:25:19.457Z,155298.31
2019-04-19T14:27:49.033Z,155281.08
2019-04-19T14:30:19.362Z,155291.67
2019-04-19T14:32:47.923Z,155281.08
2019-04-19T14:35:17.968Z,155278.44
2019-04-19T14:37:46.977Z,155281.08
2019-04-19T14:40:19.565Z,155291.67
2019-04-19T14:42:48.746Z,155287.72
2019-04-19T14:45:19.829Z,155285.08
2019-04-19T14:47:48.833Z,155263.89
2019-04-19T14:50:18.971Z,155251.88
2019-04-19T14:52:48.806Z,155259.89
2019-04-19T14:55:18.177Z,155271.80
2019-04-19T14:57:46.786Z,155255.88
2019-04-19T15:00:19.344Z,155232.06
2019-04-19T15:02:51.726Z,155243.97
2019-04-19T15:05:28.159Z,155239.97
2019-04-19T15:07:56.899Z,155236.02
2019-04-19T15:10:25.520Z,155239.97
2019-04-19T15:12:56.655Z,155230.69
2019-04-19T15:15:26.680Z,155243.97
2019-04-19T15:17:55.405Z,155243.97
2019-04-19T15:20:26.419Z,155238.64
2019-04-19T15:22:56.025Z,155229.37
2019-04-19T15:25:25.661Z,155218.78
2019-04-19T15:27:54.943Z,155217.45
2019-04-19T15:30:25.318Z,155214.81
2019-04-19T15:32:54.206Z,155217.45
2019-04-19T15:35:23.568Z,155202.91
2019-04-19T15:37:52.243Z,155209.50
2019-04-19T15:40:23.059Z,155205.55
2019-04-19T15:42:52.815Z,155205.55
2019-04-19T15:45:25.072Z,155209.50
2019-04-19T15:47:54.921Z,155217.45
2019-04-19T15:50:24.462Z,155218.78
2019-04-19T15:52:53.751Z,155196.28
2019-04-19T15:57:50.698Z,155209.50
2019-04-19T16:00:23.713Z,155205.55
2019-04-19T16:05:28.742Z,155198.91
2019-04-19T16:08:06.545Z,155191.00
2019-04-19T16:10:40.276Z,155183.05
2019-04-19T16:13:09.755Z,155180.41
2019-04-19T16:15:38.313Z,155183.05
2019-04-19T16:18:08.190Z,155183.05
2019-04-19T16:20:36.874Z,155169.81
2019-04-19T16:23:05.808Z,155153.91
2019-04-19T16:25:34.452Z,155142.00
2019-04-19T16:28:03.289Z,155143.31
2019-04-19T16:30:32.515Z,155127.45
2019-04-19T16:33:01.717Z,155130.09
2019-04-19T16:35:30.605Z,155111.53
2019-04-19T16:38:01.431Z,155100.95
2019-04-19T16:40:30.203Z,155090.36
2019-04-19T16:42:59.381Z,155090.36
2019-04-19T16:45:28.204Z,155090.36
2019-04-19T16:47:57.670Z,155087.72
2019-04-19T16:50:26.265Z,155066.55
2019-04-19T16:52:54.730Z,155055.95
2019-04-19T16:55:23.403Z,155050.64
2019-04-19T16:57:52.495Z,155021.45
2019-04-19T17:00:24.882Z,155014.88
2019-04-19T17:02:53.454Z,155010.88
2019-04-19T17:05:21.945Z,154995.02
2019-04-19T17:07:51.327Z,154987.06
2019-04-19T17:10:20.454Z,154977.80
2019-04-19T17:12:51.474Z,154963.25
2019-04-19T17:15:21.732Z,154956.62
2019-04-19T17:18:04.921Z,154939.45
2019-04-19T17:20:38.058Z,154930.19
2019-04-19T17:23:06.543Z,154903.70
2019-04-19T17:25:35.469Z,154897.06
2019-04-19T17:28:05.119Z,154882.53
2019-04-19T17:30:36.261Z,154877.27
2019-04-19T17:33:06.184Z,154857.41
2019-04-19T17:35:34.805Z,154849.47
2019-04-19T17:38:03.284Z,154841.52
2019-04-19T17:40:32.366Z,154834.88
2019-04-19T17:43:01.378Z,154820.30
2019-04-19T17:45:29.926Z,154791.19
2019-04-19T17:47:58.589Z,154776.66
2019-04-19T17:50:27.237Z,154754.19
2019-04-19T17:52:56.909Z,154767.41
2019-04-19T17:55:30.999Z,154755.50
2019-04-19T17:57:56.957Z,154722.45
2019-04-19T18:00:26.165Z,154695.97
2019-04-19T18:02:55.189Z,154677.45
2019-04-19T18:05:24.319Z,154665.56
2019-04-19T18:07:53.908Z,154645.72
2019-04-19T18:10:27.190Z,154618.00
2019-04-19T18:12:53.119Z,154616.67
2019-04-19T18:15:21.750Z,154587.53
2019-04-19T18:17:56.515Z,154572.97
2019-04-19T18:20:22.926Z,154555.81
2019-04-19T18:23:00.721Z,154549.19
2019-04-19T18:25:22.152Z,154534.66
2019-04-19T18:27:53.814Z,154508.22
2019-04-19T18:30:22.124Z,154502.95
2019-04-19T18:32:52.593Z,154487.06
2019-04-19T18:35:27.230Z,154471.23
2019-04-19T18:37:51.758Z,154451.41
2019-04-19T18:40:21.572Z,154439.53
2019-04-19T18:43:06.685Z,154413.08
2019-04-19T18:45:23.639Z,154402.50
2019-04-19T18:47:50.806Z,154360.19
2019-04-19T18:50:20.341Z,154348.30
2019-04-19T18:52:53.433Z,154312.61
2019-04-19T18:55:28.502Z,154294.16
2019-04-19T18:57:49.812Z,154273.03
2019-04-19T19:00:19.066Z,154280.91
2019-04-19T19:02:54.132Z,154271.66
2019-04-19T19:05:18.256Z,154243.97
2019-04-19T19:07:49.405Z,154247.91
2019-04-19T19:10:25.723Z,154238.66
2019-04-19T19:12:51.288Z,154199.03
2019-04-19T19:15:20.450Z,154191.14
2019-04-19T19:17:54.224Z,154152.84
2019-04-19T19:20:22.525Z,154140.97
2019-04-19T19:23:02.464Z,154119.80
2019-04-19T19:25:34.249Z,154111.86
2019-04-19T19:27:50.535Z,154090.75
2019-04-19T19:30:21.068Z,154098.67
2019-04-19T19:35:23.869Z,154049.81
2019-04-19T19:37:50.892Z,154032.64
2019-04-19T19:40:31.632Z,154028.70
2019-04-19T19:41:43.633Z,154065.69
2019-04-19T19:43:18.090Z,154024.77
2019-04-19T19:45:36.416Z,153991.73
2019-04-19T19:48:20.236Z,153977.23
2019-04-19T19:50:54.236Z,153973.30
2019-04-19T19:53:25.362Z,153954.81
2019-04-19T19:55:53.257Z,153921.84
2019-04-19T19:58:05.834Z,153898.06
2019-04-19T20:00:37.735Z,153891.50
2019-04-19T20:03:10.765Z,153896.75
2019-04-19T20:05:34.407Z,153883.56
2019-04-19T20:07:59.973Z,153859.83
2019-04-19T20:10:33.826Z,153818.89
2019-04-19T20:13:02.626Z,153821.52
2019-04-19T20:15:33.834Z,153792.50
2019-04-19T20:18:00.255Z,153783.25
2019-04-19T20:20:34.175Z,153778.00
2019-04-19T20:23:00.262Z,153767.45
2019-04-19T20:25:40.655Z,153752.92
2019-04-19T20:27:59.509Z,153763.52
2019-04-19T20:30:36.850Z,153742.38
2019-04-19T20:33:02.633Z,153713.41
2019-04-19T20:35:30.032Z,153702.86
2019-04-19T20:38:02.459Z,153692.31
2019-04-19T20:40:30.826Z,153673.84
2019-04-19T20:43:21.072Z,153644.83
2019-04-19T20:45:38.945Z,153631.66
2019-04-19T20:48:07.904Z,153617.13
2019-04-19T20:50:42.538Z,153602.66
2019-04-19T20:53:15.763Z,153605.27
2019-04-19T20:55:55.532Z,153596.05
2019-04-19T20:58:25.740Z,153576.22
2019-04-19T21:00:42.368Z,153568.34
2019-04-19T21:03:11.034Z,153560.42
2019-04-19T21:05:44.373Z,153523.50
2019-04-19T21:08:12.687Z,153531.42
2019-04-19T21:10:49.988Z,153516.95
2019-04-19T21:13:12.788Z,153505.09
2019-04-19T21:15:41.678Z,153481.34
2019-04-19T21:18:19.047Z,153470.81
2019-04-19T21:20:40.787Z,153435.25
2019-04-19T21:23:16.171Z,153433.94
2019-04-19T21:25:46.795Z,153418.11
2019-04-19T21:28:10.559Z,153403.64
2019-04-19T21:30:45.140Z,153394.41
2019-04-19T21:33:13.687Z,153374.66
2019-04-19T21:35:48.339Z,153346.97
2019-04-19T21:38:14.601Z,153344.36
2019-04-19T21:40:43.202Z,153329.89
2019-04-19T21:43:11.222Z,153316.69
2019-04-19T21:45:43.119Z,153311.44
2019-04-19T21:48:10.960Z,153320.66
2019-04-19T21:50:44.092Z,153307.52
2019-04-19T21:53:11.136Z,153270.56
2019-04-19T21:55:43.787Z,153257.41
2019-04-19T21:58:13.442Z,153256.09
2019-04-19T22:00:54.338Z,153244.22
2019-04-19T22:03:22.813Z,153235.03
2019-04-19T22:05:47.476Z,153225.81
2019-04-19T22:08:23.464Z,153206.06
2019-04-19T22:10:49.718Z,153207.38
2019-04-19T22:13:17.434Z,153178.41
2019-04-19T22:15:51.144Z,153186.31
2019-04-19T22:18:16.126Z,153187.62
2019-04-19T22:20:51.322Z,153178.41
2019-04-19T22:23:16.148Z,153144.19
2019-04-19T22:25:52.562Z,153125.75
2019-04-19T22:28:15.377Z,153112.61
2019-04-19T22:30:48.730Z,153103.39
2019-04-19T22:33:14.383Z,153103.39
2019-04-19T22:35:46.119Z,153104.70
2019-04-19T22:38:17.994Z,153109.98
2019-04-19T22:40:43.380Z,153094.17
2019-04-19T22:43:14.466Z,153062.59
2019-04-19T22:45:42.476Z,153069.19
2019-04-19T22:48:16.301Z,153071.81
2019-04-19T22:50:42.446Z,153037.63
2019-04-19T22:53:11.005Z,153008.66
2019-04-19T22:55:47.430Z,153031.02
2019-04-19T22:58:16.806Z,152986.31
2019-04-19T23:00:43.883Z,152995.47
2019-04-19T23:03:23.975Z,152982.33
2019-04-19T23:05:50.305Z,152991.53
2019-04-19T23:08:28.145Z,152975.78
2019-04-19T23:10:54.478Z,152967.88
2019-04-19T23:13:23.273Z,152949.39
2019-04-19T23:15:59.939Z,152948.09
2019-04-19T23:18:24.847Z,152957.34
2019-04-19T23:20:56.585Z,152946.78
2019-04-19T23:23:27.983Z,152920.45
2019-04-19T23:26:07.378Z,152927.05
2019-04-19T23:28:29.035Z,152907.31
2019-04-19T23:31:02.075Z,152904.69
2019-04-19T23:33:24.466Z,152900.72
2019-04-19T23:35:53.354Z,152899.41
2019-04-19T23:38:25.696Z,152878.36
2019-04-19T23:40:53.122Z,152873.13
2019-04-19T23:43:27.965Z,152867.84
2019-04-19T23:45:52.931Z,152850.78
2019-04-19T23:48:26.604Z,152854.70
2019-04-19T23:50:52.448Z,152842.88
2019-04-19T23:53:23.232Z,152837.59
2019-04-19T23:55:51.131Z,152831.05
2019-04-19T23:58:28.169Z,152831.05
